createdAt,value
2023-01-02T00:03:49.462Z,100817.75
2023-01-02T00:08:05.946Z,100800.56
2023-01-02T00:12:22.277Z,100802.28
2023-01-02T00:16:38.543Z,100801.31
2023-01-02T00:20:54.847Z,100814.94
2023-01-02T00:25:11.146Z,100807.78
2023-01-02T00:29:27.567Z,100799.09
2023-01-02T00:33:44.298Z,100802.72
2023-01-02T00:38:00.534Z,100814.44
2023-01-02T00:42:16.829Z,100817.94
2023-01-02T00:46:33.111Z,100821.06
2023-01-02T00:50:49.894Z,100816.91
2023-01-02T00:55:06.472Z,100813.13
2023-01-02T00:59:22.716Z,100822.47
2023-01-02T01:03:38.975Z,100818.91
2023-01-02T01:07:56.386Z,100809.31
2023-01-02T01:12:12.609Z,100807.25
2023-01-02T01:16:28.942Z,100803.28
2023-01-02T01:20:45.156Z,100812.22
2023-01-02T01:25:01.427Z,100800.38
2023-01-02T01:29:17.737Z,100796.59
2023-01-02T01:33:34.315Z,100786.75
2023-01-02T01:37:53.402Z,100786.19
2023-01-02T01:42:13.779Z,100779.91
2023-01-02T01:46:47.460Z,100763.97
2023-01-02T01:51:03.638Z,100758.06
2023-01-02T01:55:47.149Z,100753.47
2023-01-02T02:00:04.637Z,100745.37
2023-01-02T02:04:22.285Z,100743.22
2023-01-02T02:09:01.994Z,100741.91
2023-01-02T02:13:18.493Z,100742.41
2023-01-02T02:17:56.580Z,100746.13
2023-01-02T02:22:28.550Z,100738.13
2023-01-02T02:27:22.868Z,100742.00
2023-01-02T02:32:16.919Z,100730.62
2023-01-02T02:36:46.469Z,100740.00
2023-01-02T02:41:08.944Z,100736.81
2023-01-02T02:46:00.411Z,100731.84
2023-01-02T02:50:31.570Z,100725.56
2023-01-02T02:59:25.657Z,100735.44
2023-01-02T03:03:41.995Z,100741.16
2023-01-02T03:08:10.228Z,100730.06
2023-01-02T03:12:53.396Z,100739.94
2023-01-02T03:17:41.910Z,100729.09
2023-01-02T03:22:08.908Z,100718.87
2023-01-02T03:26:31.327Z,100713.16
2023-01-02T03:30:52.113Z,100701.87
2023-01-02T03:35:12.345Z,100699.91
2023-01-02T03:39:30.828Z,100704.41
2023-01-02T03:43:56.343Z,100695.44
2023-01-02T03:48:44.046Z,100696.91
2023-01-02T03:53:00.538Z,100699.06
2023-01-02T03:57:29.991Z,100689.91
2023-01-02T04:02:10.602Z,100690.63
2023-01-02T04:06:32.035Z,100677.72
2023-01-02T04:10:56.263Z,100680.44
2023-01-02T04:15:17.649Z,100687.50
2023-01-02T04:19:48.328Z,100696.25
2023-01-02T04:24:16.336Z,100685.03
2023-01-02T04:28:34.665Z,100682.44
2023-01-02T04:32:51.709Z,100682.47
2023-01-02T04:37:07.965Z,100688.59
2023-01-02T04:41:28.820Z,100696.69
2023-01-02T04:45:45.155Z,100698.75
2023-01-02T04:50:01.423Z,100697.56
2023-01-02T04:54:17.673Z,100689.81
2023-01-02T04:58:33.834Z,100704.00
2023-01-02T05:02:50.324Z,100712.28
2023-01-02T05:07:07.037Z,100717.63
2023-01-02T05:11:23.342Z,100701.56
2023-01-02T05:15:39.612Z,100701.97
2023-01-02T05:19:55.860Z,100699.75
2023-01-02T05:24:12.341Z,100708.19
2023-01-02T05:28:31.204Z,100705.78
2023-01-02T05:32:51.550Z,100695.63
2023-01-02T05:37:07.845Z,100704.53
2023-01-02T05:41:24.215Z,100700.91
2023-01-02T05:45:40.452Z,100709.66
2023-01-02T05:49:56.817Z,100706.22
2023-01-02T05:54:16.056Z,100713.03
2023-01-02T05:58:34.378Z,100703.38
2023-01-02T06:02:50.838Z,100706.62
2023-01-02T06:07:07.198Z,100710.06
2023-01-02T06:11:23.549Z,100708.03
2023-01-02T06:15:39.861Z,100704.09
2023-01-02T06:19:56.191Z,100689.66
2023-01-02T06:24:12.585Z,100697.06
2023-01-02T06:28:28.921Z,100697.91
2023-01-02T06:32:45.268Z,100702.06
2023-01-02T06:37:06.155Z,100698.69
2023-01-02T06:41:25.709Z,100697.50
2023-01-02T06:45:41.977Z,100699.00
2023-01-02T06:49:58.388Z,100697.09
2023-01-02T06:54:14.598Z,100695.25
2023-01-02T06:58:32.903Z,100702.13
2023-01-02T07:02:49.200Z,100706.91
2023-01-02T07:07:05.758Z,100713.59
2023-01-02T07:11:24.510Z,100707.31
2023-01-02T07:15:40.744Z,100715.69
2023-01-02T07:20:01.671Z,100727.06
2023-01-02T07:24:18.504Z,100731.22
2023-01-02T07:28:35.770Z,100723.59
2023-01-02T07:32:56.424Z,100730.78
2023-01-02T07:37:12.808Z,100735.56
2023-01-02T07:41:28.974Z,100723.66
2023-01-02T07:45:50.010Z,100719.84
2023-01-02T07:50:09.667Z,100720.12
2023-01-02T07:54:25.874Z,100722.34
2023-01-02T07:58:42.258Z,100726.94
2023-01-02T08:02:58.559Z,100727.16
2023-01-02T08:07:14.834Z,100724.87
2023-01-02T08:11:31.099Z,100712.59
2023-01-02T08:15:47.350Z,100720.47
2023-01-02T08:20:08.018Z,100712.28
2023-01-02T08:24:24.706Z,100712.84
2023-01-02T08:28:41.721Z,100720.59
2023-01-02T08:32:57.886Z,100723.03
2023-01-02T08:37:15.288Z,100726.16
2023-01-02T08:41:41.708Z,100717.63
2023-01-02T08:45:57.980Z,100718.37
2023-01-02T08:50:14.274Z,100718.72
2023-01-02T08:54:30.529Z,100712.72
2023-01-02T08:58:52.772Z,100726.31
2023-01-02T09:03:11.766Z,100722.78
2023-01-02T09:07:28.970Z,100744.16
2023-01-02T09:11:52.287Z,100745.06
2023-01-02T09:16:09.209Z,100744.72
2023-01-02T09:20:27.600Z,100725.00
2023-01-02T09:24:43.797Z,100720.09
2023-01-02T09:29:00.145Z,100722.09
2023-01-02T09:33:16.402Z,100707.03
2023-01-02T09:37:32.736Z,100700.63
2023-01-02T09:41:54.565Z,100704.69
2023-01-02T09:46:20.428Z,100706.72
2023-01-02T09:50:36.714Z,100705.47
2023-01-02T09:54:52.993Z,100697.28
2023-01-02T09:59:23.704Z,100690.81
2023-01-02T10:04:10.734Z,100688.25
2023-01-02T10:08:42.114Z,100691.19
2023-01-02T10:13:16.946Z,100695.34
2023-01-02T10:17:42.121Z,100692.97
2023-01-02T10:22:01.016Z,100686.72
2023-01-02T10:26:23.425Z,100683.31
2023-01-02T10:30:44.205Z,100668.53
2023-01-02T10:35:09.801Z,100662.28
2023-01-02T10:39:28.089Z,100650.09
2023-01-02T10:43:47.553Z,100648.22
2023-01-02T10:48:03.920Z,100646.25
2023-01-02T10:52:30.161Z,100645.25
2023-01-02T10:56:49.694Z,100634.13
2023-01-02T11:01:19.413Z,100624.22
2023-01-02T11:05:43.477Z,100617.63
2023-01-02T11:09:59.835Z,100614.94
2023-01-02T11:14:16.075Z,100611.62
2023-01-02T11:18:34.834Z,100605.53
2023-01-02T11:22:51.487Z,100595.31
2023-01-02T11:27:09.538Z,100586.75
2023-01-02T11:31:25.931Z,100586.13
2023-01-02T11:36:05.823Z,100584.31
2023-01-02T11:40:32.780Z,100574.59
2023-01-02T11:45:03.639Z,100560.94
2023-01-02T11:49:29.555Z,100557.47
2023-01-02T11:53:48.818Z,100560.69
2023-01-02T11:58:17.366Z,100551.75
2023-01-02T12:02:46.027Z,100547.03
2023-01-02T12:07:22.549Z,100543.25
2023-01-02T12:11:48.221Z,100533.97
2023-01-02T12:16:13.665Z,100534.31
2023-01-02T12:20:41.515Z,100545.31
2023-01-02T12:25:07.397Z,100532.78
2023-01-02T12:29:55.295Z,100535.94
2023-01-02T12:34:26.087Z,100529.19
2023-01-02T12:39:00.800Z,100531.16
2023-01-02T12:43:25.636Z,100522.91
2023-01-02T12:48:12.976Z,100519.47
2023-01-02T12:53:05.237Z,100524.97
2023-01-02T12:57:55.730Z,100518.28
2023-01-02T13:02:49.543Z,100517.72
2023-01-02T13:07:11.802Z,100513.25
2023-01-02T13:11:51.041Z,100512.63
2023-01-02T13:16:24.569Z,100513.34
2023-01-02T13:21:11.587Z,100513.31
2023-01-02T13:25:30.829Z,100514.63
2023-01-02T13:29:47.269Z,100516.25
2023-01-02T13:34:22.349Z,100522.53
2023-01-02T13:38:39.707Z,100513.69
2023-01-02T13:43:00.116Z,100522.06
2023-01-02T13:47:34.054Z,100526.06
2023-01-02T13:52:00.054Z,100519.63
2023-01-02T13:56:23.576Z,100520.19
2023-01-02T14:00:40.857Z,100513.38
2023-01-02T14:04:57.360Z,100526.03
2023-01-02T14:09:18.738Z,100531.94
2023-01-02T14:13:52.117Z,100531.06
2023-01-02T14:18:11.961Z,100536.38
2023-01-02T14:22:28.310Z,100529.09
2023-01-02T14:26:51.267Z,100529.00
2023-01-02T14:31:18.833Z,100535.37
2023-01-02T14:35:38.995Z,100535.03
2023-01-02T14:39:55.212Z,100529.56
2023-01-02T14:44:12.065Z,100540.47
2023-01-02T14:48:36.207Z,100542.53
2023-01-02T14:53:09.857Z,100541.53
2023-01-02T14:57:28.429Z,100537.25
2023-01-02T15:01:51.726Z,100541.69
2023-01-02T15:06:20.353Z,100528.94
2023-01-02T15:10:56.640Z,100540.53
2023-01-02T15:15:14.325Z,100529.81
2023-01-02T15:19:33.266Z,100537.81
2023-01-02T15:23:51.614Z,100539.47
2023-01-02T15:28:29.272Z,100531.91
2023-01-02T15:32:49.593Z,100539.78
2023-01-02T15:37:07.810Z,100541.56
2023-01-02T15:41:24.001Z,100528.63
2023-01-02T15:45:58.618Z,100534.94
2023-01-02T15:50:19.709Z,100536.25
2023-01-02T15:54:37.363Z,100543.56
2023-01-02T15:58:53.598Z,100536.09
2023-01-02T16:03:11.805Z,100527.38
2023-01-02T16:07:28.431Z,100529.44
2023-01-02T16:11:51.090Z,100542.03
2023-01-02T16:16:15.837Z,100545.19
2023-01-02T16:20:33.319Z,100549.16
2023-01-02T16:25:05.851Z,100537.09
2023-01-02T16:29:23.399Z,100548.50
2023-01-02T16:33:42.044Z,100548.16
2023-01-02T16:38:00.290Z,100551.34
2023-01-02T16:42:37.671Z,100550.97
2023-01-02T16:46:53.966Z,100554.41
2023-01-02T16:51:10.215Z,100554.25
2023-01-02T16:55:26.432Z,100552.97
2023-01-02T16:59:43.545Z,100550.06
2023-01-02T17:04:00.092Z,100549.81
2023-01-02T17:08:21.884Z,100555.87
2023-01-02T17:12:43.402Z,100557.00
2023-01-02T17:17:00.227Z,100560.72
2023-01-02T17:21:16.508Z,100566.28
2023-01-02T17:25:32.778Z,100560.41
2023-01-02T17:29:48.998Z,100557.91
2023-01-02T17:34:05.250Z,100555.75
2023-01-02T17:38:21.891Z,100558.41
2023-01-02T17:42:40.493Z,100565.59
2023-01-02T17:47:23.220Z,100564.16
2023-01-02T17:51:33.447Z,100573.78
2023-01-02T17:56:21.349Z,100563.31
2023-01-02T18:00:32.425Z,100575.72
2023-01-02T18:04:54.876Z,100568.28
2023-01-02T18:09:11.664Z,100564.66
2023-01-02T18:13:35.122Z,100571.53
2023-01-02T18:17:53.077Z,100563.91
2023-01-02T18:22:18.177Z,100562.09
2023-01-02T18:26:43.750Z,100557.62
2023-01-02T18:31:00.190Z,100562.31
2023-01-02T18:40:02.389Z,100563.28
2023-01-02T18:44:29.086Z,100560.72
2023-01-02T18:48:45.876Z,100554.75
2023-01-02T18:53:23.712Z,100564.16
2023-01-02T18:58:01.557Z,100570.00
2023-01-02T19:02:52.639Z,100565.94
2023-01-02T19:07:28.797Z,100572.56
2023-01-02T19:12:20.500Z,100569.50
2023-01-02T19:16:36.761Z,100564.66
2023-01-02T19:21:19.629Z,100571.63
2023-01-02T19:25:35.821Z,100561.78
2023-01-02T19:29:53.014Z,100567.25
2023-01-02T19:34:41.048Z,100568.25
2023-01-02T19:38:57.496Z,100575.81
2023-01-02T19:43:13.723Z,100569.25
2023-01-02T19:47:32.848Z,100574.50
2023-01-02T19:51:49.058Z,100571.97
2023-01-02T19:56:05.495Z,100575.47
2023-01-02T20:00:21.928Z,100585.81
2023-01-02T20:04:38.129Z,100578.59
2023-01-02T20:08:54.505Z,100576.69
2023-01-02T20:13:10.683Z,100576.84
2023-01-02T20:17:28.751Z,100581.81
2023-01-02T20:21:45.043Z,100584.38
2023-01-02T20:26:01.861Z,100584.47
2023-01-02T20:30:23.898Z,100584.31
2023-01-02T20:34:44.817Z,100585.06
2023-01-02T20:39:01.140Z,100575.78
2023-01-02T20:43:17.546Z,100580.34
2023-01-02T20:47:36.553Z,100586.13
2023-01-02T20:51:56.229Z,100578.59
2023-01-02T20:56:12.423Z,100588.53
2023-01-02T21:00:28.931Z,100581.81
2023-01-02T21:04:45.219Z,100581.75
2023-01-02T21:09:02.630Z,100593.56
2023-01-02T21:13:18.959Z,100589.41
2023-01-02T21:17:35.142Z,100609.87
2023-01-02T21:21:51.361Z,100605.28
2023-01-02T21:26:09.740Z,100609.84
2023-01-02T21:30:29.002Z,100611.72
2023-01-02T21:34:45.277Z,100611.50
2023-01-02T21:39:01.557Z,100604.59
2023-01-02T21:43:17.815Z,100605.03
2023-01-02T21:47:34.164Z,100606.31
2023-01-02T21:51:50.447Z,100606.31
2023-01-02T21:56:06.892Z,100593.75
2023-01-02T22:00:28.516Z,100589.75
2023-01-02T22:04:44.762Z,100606.19
2023-01-02T22:09:02.340Z,100619.03
2023-01-02T22:13:18.683Z,100616.97
2023-01-02T22:17:35.038Z,100619.56
2023-01-02T22:21:52.030Z,100622.66
2023-01-02T22:26:15.639Z,100615.16
2023-01-02T22:30:34.950Z,100628.38
2023-01-02T22:34:52.013Z,100618.09
2023-01-02T22:39:27.641Z,100609.03
2023-01-02T22:43:45.829Z,100606.22
2023-01-02T22:48:06.300Z,100602.47
2023-01-02T22:52:23.115Z,100601.44
2023-01-02T22:56:39.908Z,100612.72
2023-01-02T23:01:02.125Z,100609.69
2023-01-02T23:05:20.778Z,100613.94
2023-01-02T23:09:37.114Z,100621.09
2023-01-02T23:13:56.808Z,100610.97
2023-01-02T23:18:31.723Z,100618.16
2023-01-02T23:22:48.394Z,100621.47
2023-01-02T23:27:10.564Z,100634.69
2023-01-02T23:31:26.882Z,100637.00
2023-01-02T23:35:43.168Z,100640.94
2023-01-02T23:39:59.480Z,100639.81
2023-01-02T23:44:16.235Z,100642.19
2023-01-02T23:48:32.601Z,100636.81
2023-01-02T23:52:48.893Z,100645.19
2023-01-02T23:57:05.206Z,100648.94
